sensor_id;sensor_type;location;lat;lon;timestamp;P1;durP1;ratioP1;P2;durP2;ratioP2
23716;SDS011;22094;52.130;5.598;2023-07-13T00:01:47;13.45;;;3.10;;
23716;SDS011;22094;52.130;5.598;2023-07-13T00:04:15;13.23;;;3.22;;
23716;SDS011;22094;52.130;5.598;2023-07-13T00:06:42;11.43;;;3.30;;
23716;SDS011;22094;52.130;5.598;2023-07-13T00:09:12;11.30;;;3.10;;
23716;SDS011;22094;52.130;5.598;2023-07-13T00:11:39;13.25;;;3.72;;
23716;SDS011;22094;52.130;5.598;2023-07-13T00:14:06;7.90;;;3.42;;
23716;SDS011;22094;52.130;5.598;2023-07-13T00:16:36;11.52;;;3.65;;
23716;SDS011;22094;52.130;5.598;2023-07-13T00:19:03;12.35;;;3.60;;
23716;SDS011;22094;52.130;5.598;2023-07-13T00:21:30;10.40;;;3.40;;
23716;SDS011;22094;52.130;5.598;2023-07-13T00:23:56;10.50;;;3.47;;
23716;SDS011;22094;52.130;5.598;2023-07-13T00:26:22;15.13;;;3.72;;
23716;SDS011;22094;52.130;5.598;2023-07-13T00:28:48;11.45;;;3.70;;
23716;SDS011;22094;52.130;5.598;2023-07-13T00:31:13;11.73;;;4.03;;
23716;SDS011;22094;52.130;5.598;2023-07-13T00:33:39;6.90;;;3.38;;
23716;SDS011;22094;52.130;5.598;2023-07-13T00:36:06;11.13;;;3.45;;
23716;SDS011;22094;52.130;5.598;2023-07-13T00:38:32;11.32;;;4.00;;
23716;SDS011;22094;52.130;5.598;2023-07-13T00:40:58;9.68;;;3.80;;
23716;SDS011;22094;52.130;5.598;2023-07-13T00:43:25;12.00;;;3.95;;
23716;SDS011;22094;52.130;5.598;2023-07-13T00:48:22;11.18;;;3.75;;
23716;SDS011;22094;52.130;5.598;2023-07-13T00:50:53;9.75;;;4.07;;
23716;SDS011;22094;52.130;5.598;2023-07-13T00:53:22;8.80;;;3.90;;
23716;SDS011;22094;52.130;5.598;2023-07-13T00:55:51;9.63;;;3.63;;
23716;SDS011;22094;52.130;5.598;2023-07-13T00:58:19;9.65;;;3.65;;
23716;SDS011;22094;52.130;5.598;2023-07-13T01:00:45;12.30;;;4.10;;
23716;SDS011;22094;52.130;5.598;2023-07-13T01:03:14;11.77;;;3.63;;
23716;SDS011;22094;52.130;5.598;2023-07-13T01:05:40;9.18;;;3.60;;
23716;SDS011;22094;52.130;5.598;2023-07-13T01:08:05;11.23;;;3.70;;
23716;SDS011;22094;52.130;5.598;2023-07-13T01:10:31;13.80;;;3.88;;
23716;SDS011;22094;52.130;5.598;2023-07-13T01:13:07;11.40;;;3.33;;
23716;SDS011;22094;52.130;5.598;2023-07-13T01:15:41;11.75;;;3.53;;
23716;SDS011;22094;52.130;5.598;2023-07-13T01:18:16;10.93;;;3.83;;
23716;SDS011;22094;52.130;5.598;2023-07-13T01:21:00;11.63;;;3.60;;
23716;SDS011;22094;52.130;5.598;2023-07-13T01:23:27;8.25;;;3.45;;
23716;SDS011;22094;52.130;5.598;2023-07-13T01:25:55;12.82;;;4.20;;
23716;SDS011;22094;52.130;5.598;2023-07-13T01:28:21;8.38;;;3.20;;
23716;SDS011;22094;52.130;5.598;2023-07-13T01:30:52;7.68;;;3.40;;
23716;SDS011;22094;52.130;5.598;2023-07-13T01:33:18;11.55;;;3.30;;
23716;SDS011;22094;52.130;5.598;2023-07-13T01:35:45;9.27;;;3.60;;
23716;SDS011;22094;52.130;5.598;2023-07-13T01:38:16;10.38;;;3.50;;
23716;SDS011;22094;52.130;5.598;2023-07-13T01:40:43;11.88;;;3.50;;
23716;SDS011;22094;52.130;5.598;2023-07-13T01:43:11;9.18;;;3.47;;
23716;SDS011;22094;52.130;5.598;2023-07-13T01:45:41;10.55;;;3.97;;
23716;SDS011;22094;52.130;5.598;2023-07-13T01:48:08;10.20;;;4.05;;
23716;SDS011;22094;52.130;5.598;2023-07-13T01:50:35;13.43;;;3.80;;
23716;SDS011;22094;52.130;5.598;2023-07-13T01:53:01;15.18;;;4.00;;
23716;SDS011;22094;52.130;5.598;2023-07-13T01:55:27;12.82;;;4.15;;
23716;SDS011;22094;52.130;5.598;2023-07-13T01:57:52;15.18;;;4.10;;
23716;SDS011;22094;52.130;5.598;2023-07-13T02:00:18;13.05;;;3.63;;
23716;SDS011;22094;52.130;5.598;2023-07-13T02:02:44;10.75;;;4.45;;
23716;SDS011;22094;52.130;5.598;2023-07-13T02:05:10;12.27;;;3.92;;
23716;SDS011;22094;52.130;5.598;2023-07-13T02:07:36;12.05;;;3.72;;
23716;SDS011;22094;52.130;5.598;2023-07-13T02:10:03;12.18;;;4.50;;
23716;SDS011;22094;52.130;5.598;2023-07-13T02:12:29;9.48;;;4.03;;
23716;SDS011;22094;52.130;5.598;2023-07-13T02:14:55;11.82;;;4.00;;
23716;SDS011;22094;52.130;5.598;2023-07-13T02:17:21;10.43;;;4.13;;
23716;SDS011;22094;52.130;5.598;2023-07-13T02:19:46;12.27;;;4.07;;
23716;SDS011;22094;52.130;5.598;2023-07-13T02:22:12;13.27;;;4.50;;
23716;SDS011;22094;52.130;5.598;2023-07-13T02:24:38;8.35;;;4.07;;
23716;SDS011;22094;52.130;5.598;2023-07-13T02:27:04;9.73;;;4.25;;
23716;SDS011;22094;52.130;5.598;2023-07-13T02:29:30;14.40;;;4.85;;
23716;SDS011;22094;52.130;5.598;2023-07-13T02:31:55;13.32;;;4.70;;
23716;SDS011;22094;52.130;5.598;2023-07-13T02:34:21;8.98;;;4.47;;
23716;SDS011;22094;52.130;5.598;2023-07-13T02:36:47;12.23;;;5.25;;
23716;SDS011;22094;52.130;5.598;2023-07-13T02:39:13;21.40;;;5.47;;
23716;SDS011;22094;52.130;5.598;2023-07-13T02:41:39;16.27;;;4.93;;
23716;SDS011;22094;52.130;5.598;2023-07-13T02:44:04;10.25;;;4.45;;
23716;SDS011;22094;52.130;5.598;2023-07-13T02:46:31;14.20;;;5.35;;
23716;SDS011;22094;52.130;5.598;2023-07-13T02:48:58;12.00;;;5.05;;
23716;SDS011;22094;52.130;5.598;2023-07-13T02:51:24;17.13;;;6.18;;
23716;SDS011;22094;52.130;5.598;2023-07-13T02:53:50;15.43;;;5.47;;
23716;SDS011;22094;52.130;5.598;2023-07-13T02:56:16;15.80;;;5.95;;
23716;SDS011;22094;52.130;5.598;2023-07-13T02:58:42;11.20;;;5.13;;
23716;SDS011;22094;52.130;5.598;2023-07-13T03:01:09;18.40;;;5.45;;
23716;SDS011;22094;52.130;5.598;2023-07-13T03:03:35;13.98;;;5.57;;
23716;SDS011;22094;52.130;5.598;2023-07-13T03:06:02;17.17;;;5.65;;
23716;SDS011;22094;52.130;5.598;2023-07-13T03:08:30;19.27;;;5.93;;
23716;SDS011;22094;52.130;5.598;2023-07-13T03:11:00;17.60;;;6.43;;
23716;SDS011;22094;52.130;5.598;2023-07-13T03:13:32;19.70;;;6.45;;
23716;SDS011;22094;52.130;5.598;2023-07-13T03:15:58;17.55;;;6.43;;
23716;SDS011;22094;52.130;5.598;2023-07-13T03:18:26;23.88;;;6.78;;
23716;SDS011;22094;52.130;5.598;2023-07-13T03:20:53;15.23;;;6.53;;
23716;SDS011;22094;52.130;5.598;2023-07-13T03:23:19;19.88;;;6.63;;
23716;SDS011;22094;52.130;5.598;2023-07-13T03:25:45;17.98;;;6.90;;
23716;SDS011;22094;52.130;5.598;2023-07-13T03:28:12;16.85;;;7.47;;
23716;SDS011;22094;52.130;5.598;2023-07-13T03:30:38;17.58;;;6.93;;
23716;SDS011;22094;52.130;5.598;2023-07-13T03:33:03;24.83;;;7.38;;
23716;SDS011;22094;52.130;5.598;2023-07-13T03:35:33;18.52;;;7.13;;
23716;SDS011;22094;52.130;5.598;2023-07-13T03:37:59;20.10;;;7.28;;
23716;SDS011;22094;52.130;5.598;2023-07-13T03:40:26;15.45;;;7.22;;
23716;SDS011;22094;52.130;5.598;2023-07-13T03:42:52;18.60;;;6.82;;
23716;SDS011;22094;52.130;5.598;2023-07-13T03:45:21;23.10;;;7.30;;
23716;SDS011;22094;52.130;5.598;2023-07-13T03:47:47;23.48;;;7.85;;
23716;SDS011;22094;52.130;5.598;2023-07-13T03:50:13;17.25;;;7.00;;
23716;SDS011;22094;52.130;5.598;2023-07-13T03:52:44;26.60;;;7.72;;
23716;SDS011;22094;52.130;5.598;2023-07-13T03:55:10;20.30;;;7.78;;
23716;SDS011;22094;52.130;5.598;2023-07-13T03:58:23;21.13;;;8.05;;
23716;SDS011;22094;52.130;5.598;2023-07-13T04:01:09;21.45;;;7.47;;
23716;SDS011;22094;52.130;5.598;2023-07-13T04:03:35;18.95;;;7.88;;
23716;SDS011;22094;52.130;5.598;2023-07-13T04:06:03;15.05;;;7.10;;
23716;SDS011;22094;52.130;5.598;2023-07-13T04:08:31;23.38;;;9.10;;
23716;SDS011;22094;52.130;5.598;2023-07-13T04:10:58;24.55;;;7.80;;
23716;SDS011;22094;52.130;5.598;2023-07-13T04:13:26;19.30;;;7.28;;
23716;SDS011;22094;52.130;5.598;2023-07-13T04:15:52;19.65;;;7.00;;
23716;SDS011;22094;52.130;5.598;2023-07-13T04:18:18;23.10;;;6.60;;
23716;SDS011;22094;52.130;5.598;2023-07-13T04:20:45;19.50;;;6.05;;
23716;SDS011;22094;52.130;5.598;2023-07-13T04:23:12;19.33;;;6.68;;
23716;SDS011;22094;52.130;5.598;2023-07-13T04:25:38;15.73;;;5.70;;
23716;SDS011;22094;52.130;5.598;2023-07-13T04:28:04;16.83;;;5.57;;
23716;SDS011;22094;52.130;5.598;2023-07-13T04:30:30;15.50;;;5.13;;
23716;SDS011;22094;52.130;5.598;2023-07-13T04:32:56;15.30;;;4.80;;
23716;SDS011;22094;52.130;5.598;2023-07-13T04:35:22;11.02;;;5.10;;
23716;SDS011;22094;52.130;5.598;2023-07-13T04:37:49;14.82;;;4.97;;
23716;SDS011;22094;52.130;5.598;2023-07-13T04:40:16;13.98;;;4.90;;
23716;SDS011;22094;52.130;5.598;2023-07-13T04:42:42;12.68;;;4.65;;
23716;SDS011;22094;52.130;5.598;2023-07-13T04:45:09;17.70;;;4.82;;
23716;SDS011;22094;52.130;5.598;2023-07-13T04:47:35;13.27;;;5.10;;
23716;SDS011;22094;52.130;5.598;2023-07-13T04:50:01;15.43;;;4.53;;
23716;SDS011;22094;52.130;5.598;2023-07-13T04:52:27;11.70;;;4.88;;
23716;SDS011;22094;52.130;5.598;2023-07-13T04:54:53;17.38;;;5.68;;
23716;SDS011;22094;52.130;5.598;2023-07-13T04:57:19;28.83;;;5.93;;
23716;SDS011;22094;52.130;5.598;2023-07-13T04:59:45;15.38;;;5.18;;
23716;SDS011;22094;52.130;5.598;2023-07-13T05:02:10;14.73;;;5.75;;
23716;SDS011;22094;52.130;5.598;2023-07-13T05:04:37;16.67;;;5.35;;
23716;SDS011;22094;52.130;5.598;2023-07-13T05:07:02;14.30;;;5.25;;
23716;SDS011;22094;52.130;5.598;2023-07-13T05:09:28;20.23;;;5.78;;
23716;SDS011;22094;52.130;5.598;2023-07-13T05:11:54;19.60;;;6.18;;
23716;SDS011;22094;52.130;5.598;2023-07-13T05:14:19;15.23;;;5.68;;
23716;SDS011;22094;52.130;5.598;2023-07-13T05:16:46;21.40;;;7.05;;
23716;SDS011;22094;52.130;5.598;2023-07-13T05:19:12;19.65;;;6.68;;
23716;SDS011;22094;52.130;5.598;2023-07-13T05:21:38;17.63;;;6.60;;
23716;SDS011;22094;52.130;5.598;2023-07-13T05:24:04;16.65;;;6.50;;
23716;SDS011;22094;52.130;5.598;2023-07-13T05:26:30;18.65;;;6.10;;
23716;SDS011;22094;52.130;5.598;2023-07-13T05:28:56;19.90;;;6.72;;
23716;SDS011;22094;52.130;5.598;2023-07-13T05:31:21;19.10;;;6.65;;
23716;SDS011;22094;52.130;5.598;2023-07-13T05:33:47;18.45;;;6.40;;
23716;SDS011;22094;52.130;5.598;2023-07-13T05:36:13;17.08;;;6.32;;
23716;SDS011;22094;52.130;5.598;2023-07-13T05:38:39;22.27;;;7.03;;
23716;SDS011;22094;52.130;5.598;2023-07-13T05:41:05;18.33;;;6.13;;
23716;SDS011;22094;52.130;5.598;2023-07-13T05:43:31;20.67;;;6.82;;
23716;SDS011;22094;52.130;5.598;2023-07-13T05:45:57;23.98;;;6.35;;
23716;SDS011;22094;52.130;5.598;2023-07-13T05:48:23;19.92;;;7.00;;
23716;SDS011;22094;52.130;5.598;2023-07-13T05:50:48;17.23;;;6.85;;
23716;SDS011;22094;52.130;5.598;2023-07-13T05:53:14;20.00;;;7.72;;
23716;SDS011;22094;52.130;5.598;2023-07-13T05:55:41;20.80;;;7.00;;
23716;SDS011;22094;52.130;5.598;2023-07-13T05:58:16;19.08;;;7.32;;
23716;SDS011;22094;52.130;5.598;2023-07-13T06:00:58;19.38;;;8.20;;
23716;SDS011;22094;52.130;5.598;2023-07-13T06:03:25;22.30;;;8.05;;
23716;SDS011;22094;52.130;5.598;2023-07-13T06:05:51;24.13;;;9.27;;
23716;SDS011;22094;52.130;5.598;2023-07-13T06:08:17;21.23;;;9.20;;
23716;SDS011;22094;52.130;5.598;2023-07-13T06:10:49;14.90;;;8.82;;
23716;SDS011;22094;52.130;5.598;2023-07-13T06:13:15;20.70;;;9.77;;
23716;SDS011;22094;52.130;5.598;2023-07-13T06:15:41;23.25;;;9.60;;
23716;SDS011;22094;52.130;5.598;2023-07-13T06:18:06;29.20;;;10.73;;
23716;SDS011;22094;52.130;5.598;2023-07-13T06:20:33;23.38;;;10.45;;
23716;SDS011;22094;52.130;5.598;2023-07-13T06:23:00;18.88;;;9.82;;
23716;SDS011;22094;52.130;5.598;2023-07-13T06:25:26;23.67;;;9.88;;
23716;SDS011;22094;52.130;5.598;2023-07-13T06:27:52;21.98;;;9.48;;
23716;SDS011;22094;52.130;5.598;2023-07-13T06:30:18;23.90;;;10.57;;
23716;SDS011;22094;52.130;5.598;2023-07-13T06:32:44;23.15;;;10.50;;
23716;SDS011;22094;52.130;5.598;2023-07-13T06:35:09;19.73;;;10.02;;
23716;SDS011;22094;52.130;5.598;2023-07-13T06:37:37;27.08;;;11.20;;
23716;SDS011;22094;52.130;5.598;2023-07-13T06:40:03;17.88;;;9.95;;
23716;SDS011;22094;52.130;5.598;2023-07-13T06:42:29;23.02;;;11.93;;
23716;SDS011;22094;52.130;5.598;2023-07-13T06:44:55;23.25;;;12.15;;
23716;SDS011;22094;52.130;5.598;2023-07-13T06:47:20;22.20;;;11.50;;
23716;SDS011;22094;52.130;5.598;2023-07-13T06:49:46;24.83;;;11.63;;
23716;SDS011;22094;52.130;5.598;2023-07-13T06:52:12;24.88;;;12.15;;
23716;SDS011;22094;52.130;5.598;2023-07-13T06:54:37;23.80;;;12.48;;
23716;SDS011;22094;52.130;5.598;2023-07-13T06:57:03;24.73;;;12.60;;
23716;SDS011;22094;52.130;5.598;2023-07-13T06:59:29;21.92;;;12.23;;
23716;SDS011;22094;52.130;5.598;2023-07-13T07:01:55;25.73;;;12.07;;
23716;SDS011;22094;52.130;5.598;2023-07-13T07:04:21;23.25;;;11.45;;
23716;SDS011;22094;52.130;5.598;2023-07-13T07:06:46;20.25;;;11.13;;
23716;SDS011;22094;52.130;5.598;2023-07-13T07:09:12;22.00;;;11.68;;
23716;SDS011;22094;52.130;5.598;2023-07-13T07:11:38;22.60;;;11.70;;
23716;SDS011;22094;52.130;5.598;2023-07-13T07:14:05;20.17;;;11.10;;
23716;SDS011;22094;52.130;5.598;2023-07-13T07:16:30;21.65;;;11.52;;
23716;SDS011;22094;52.130;5.598;2023-07-13T07:18:56;22.55;;;11.55;;
23716;SDS011;22094;52.130;5.598;2023-07-13T07:21:21;24.83;;;11.90;;
23716;SDS011;22094;52.130;5.598;2023-07-13T07:23:48;20.73;;;11.43;;
23716;SDS011;22094;52.130;5.598;2023-07-13T07:26:14;22.02;;;11.55;;
23716;SDS011;22094;52.130;5.598;2023-07-13T07:28:40;22.38;;;12.40;;
23716;SDS011;22094;52.130;5.598;2023-07-13T07:31:06;23.67;;;11.88;;
23716;SDS011;22094;52.130;5.598;2023-07-13T07:33:33;25.63;;;12.10;;
23716;SDS011;22094;52.130;5.598;2023-07-13T07:35:59;21.35;;;10.90;;
23716;SDS011;22094;52.130;5.598;2023-07-13T07:38:26;24.63;;;12.30;;
23716;SDS011;22094;52.130;5.598;2023-07-13T07:40:52;21.13;;;11.05;;
23716;SDS011;22094;52.130;5.598;2023-07-13T07:43:17;22.10;;;11.20;;
23716;SDS011;22094;52.130;5.598;2023-07-13T07:45:44;22.15;;;11.13;;
23716;SDS011;22094;52.130;5.598;2023-07-13T07:48:12;23.63;;;12.20;;
23716;SDS011;22094;52.130;5.598;2023-07-13T07:50:38;21.17;;;12.50;;
23716;SDS011;22094;52.130;5.598;2023-07-13T07:53:05;22.65;;;13.25;;
23716;SDS011;22094;52.130;5.598;2023-07-13T07:55:35;25.27;;;12.77;;
23716;SDS011;22094;52.130;5.598;2023-07-13T07:58:01;25.63;;;13.98;;
23716;SDS011;22094;52.130;5.598;2023-07-13T08:00:27;26.05;;;13.80;;
23716;SDS011;22094;52.130;5.598;2023-07-13T08:02:56;26.42;;;12.63;;
23716;SDS011;22094;52.130;5.598;2023-07-13T08:05:25;25.33;;;12.60;;
23716;SDS011;22094;52.130;5.598;2023-07-13T08:07:51;23.98;;;12.10;;
23716;SDS011;22094;52.130;5.598;2023-07-13T08:10:17;20.60;;;11.25;;
23716;SDS011;22094;52.130;5.598;2023-07-13T08:12:43;21.38;;;11.88;;
23716;SDS011;22094;52.130;5.598;2023-07-13T08:15:13;18.67;;;10.00;;
23716;SDS011;22094;52.130;5.598;2023-07-13T08:17:40;16.13;;;9.23;;
23716;SDS011;22094;52.130;5.598;2023-07-13T08:20:06;18.00;;;9.38;;
23716;SDS011;22094;52.130;5.598;2023-07-13T08:22:33;18.25;;;8.73;;
23716;SDS011;22094;52.130;5.598;2023-07-13T08:25:00;14.02;;;7.53;;
23716;SDS011;22094;52.130;5.598;2023-07-13T08:27:27;16.23;;;7.20;;
23716;SDS011;22094;52.130;5.598;2023-07-13T08:29:53;14.13;;;7.63;;
23716;SDS011;22094;52.130;5.598;2023-07-13T08:32:20;15.75;;;7.10;;
23716;SDS011;22094;52.130;5.598;2023-07-13T08:34:46;17.13;;;7.38;;
23716;SDS011;22094;52.130;5.598;2023-07-13T08:37:13;13.45;;;6.90;;
23716;SDS011;22094;52.130;5.598;2023-07-13T08:39:39;12.85;;;6.18;;
23716;SDS011;22094;52.130;5.598;2023-07-13T08:42:12;16.73;;;6.82;;
23716;SDS011;22094;52.130;5.598;2023-07-13T08:45:03;13.13;;;5.68;;
23716;SDS011;22094;52.130;5.598;2023-07-13T08:47:53;15.60;;;6.55;;
23716;SDS011;22094;52.130;5.598;2023-07-13T08:50:27;10.75;;;5.90;;
23716;SDS011;22094;52.130;5.598;2023-07-13T08:52:58;13.70;;;5.85;;
23716;SDS011;22094;52.130;5.598;2023-07-13T08:55:26;13.60;;;5.70;;
23716;SDS011;22094;52.130;5.598;2023-07-13T09:03:30;11.05;;;4.32;;
23716;SDS011;22094;52.130;5.598;2023-07-13T09:06:04;5.45;;;2.50;;
23716;SDS011;22094;52.130;5.598;2023-07-13T09:16:32;4.57;;;2.15;;
23716;SDS011;22094;52.130;5.598;2023-07-13T09:19:01;4.68;;;2.20;;
23716;SDS011;22094;52.130;5.598;2023-07-13T09:21:34;5.03;;;2.22;;
23716;SDS011;22094;52.130;5.598;2023-07-13T09:27:25;5.78;;;2.25;;
23716;SDS011;22094;52.130;5.598;2023-07-13T09:30:02;6.22;;;2.90;;
23716;SDS011;22094;52.130;5.598;2023-07-13T09:33:00;12.25;;;3.40;;
23716;SDS011;22094;52.130;5.598;2023-07-13T09:35:31;11.20;;;3.90;;
23716;SDS011;22094;52.130;5.598;2023-07-13T09:38:17;5.53;;;2.85;;
23716;SDS011;22094;52.130;5.598;2023-07-13T09:40:49;8.68;;;3.90;;
23716;SDS011;22094;52.130;5.598;2023-07-13T09:43:21;7.70;;;3.28;;
23716;SDS011;22094;52.130;5.598;2023-07-13T09:45:47;5.65;;;2.88;;
23716;SDS011;22094;52.130;5.598;2023-07-13T09:48:14;8.38;;;2.90;;
23716;SDS011;22094;52.130;5.598;2023-07-13T09:50:43;6.03;;;2.92;;
23716;SDS011;22094;52.130;5.598;2023-07-13T09:53:17;6.15;;;2.53;;
23716;SDS011;22094;52.130;5.598;2023-07-13T09:55:47;8.63;;;2.90;;
23716;SDS011;22094;52.130;5.598;2023-07-13T09:58:24;7.35;;;2.92;;
23716;SDS011;22094;52.130;5.598;2023-07-13T10:00:57;10.45;;;3.40;;
23716;SDS011;22094;52.130;5.598;2023-07-13T10:03:29;7.78;;;3.10;;
23716;SDS011;22094;52.130;5.598;2023-07-13T10:06:09;5.35;;;2.28;;
23716;SDS011;22094;52.130;5.598;2023-07-13T10:08:37;9.95;;;3.28;;
23716;SDS011;22094;52.130;5.598;2023-07-13T10:11:15;9.27;;;3.38;;
23716;SDS011;22094;52.130;5.598;2023-07-13T10:13:57;6.90;;;3.45;;
23716;SDS011;22094;52.130;5.598;2023-07-13T10:16:33;18.25;;;4.88;;
23716;SDS011;22094;52.130;5.598;2023-07-13T10:19:22;10.75;;;3.45;;
23716;SDS011;22094;52.130;5.598;2023-07-13T10:21:56;6.80;;;3.83;;
23716;SDS011;22094;52.130;5.598;2023-07-13T10:24:26;7.05;;;4.10;;
23716;SDS011;22094;52.130;5.598;2023-07-13T10:27:19;9.93;;;4.55;;
23716;SDS011;22094;52.130;5.598;2023-07-13T10:29:55;10.10;;;6.32;;
23716;SDS011;22094;52.130;5.598;2023-07-13T10:32:30;13.23;;;8.45;;
23716;SDS011;22094;52.130;5.598;2023-07-13T10:34:56;18.55;;;11.98;;
23716;SDS011;22094;52.130;5.598;2023-07-13T10:37:26;13.38;;;11.88;;
23716;SDS011;22094;52.130;5.598;2023-07-13T10:39:57;22.23;;;12.95;;
23716;SDS011;22094;52.130;5.598;2023-07-13T10:42:27;19.98;;;11.50;;
23716;SDS011;22094;52.130;5.598;2023-07-13T10:45:24;15.15;;;9.68;;
23716;SDS011;22094;52.130;5.598;2023-07-13T10:47:53;13.35;;;6.72;;
23716;SDS011;22094;52.130;5.598;2023-07-13T10:50:24;9.68;;;6.45;;
23716;SDS011;22094;52.130;5.598;2023-07-13T10:53:01;9.52;;;5.00;;
23716;SDS011;22094;52.130;5.598;2023-07-13T11:03:31;6.35;;;3.72;;
23716;SDS011;22094;52.130;5.598;2023-07-13T11:06:08;4.72;;;3.00;;
23716;SDS011;22094;52.130;5.598;2023-07-13T11:08:38;3.97;;;2.53;;
23716;SDS011;22094;52.130;5.598;2023-07-13T11:13:59;7.47;;;3.10;;
23716;SDS011;22094;52.130;5.598;2023-07-13T11:16:43;4.78;;;2.65;;
23716;SDS011;22094;52.130;5.598;2023-07-13T11:27:36;4.68;;;2.40;;
23716;SDS011;22094;52.130;5.598;2023-07-13T11:35:36;3.97;;;2.53;;
23716;SDS011;22094;52.130;5.598;2023-07-13T11:38:09;4.07;;;2.33;;
23716;SDS011;22094;52.130;5.598;2023-07-13T11:40:47;3.88;;;2.40;;
23716;SDS011;22094;52.130;5.598;2023-07-13T11:43:16;3.17;;;2.10;;
23716;SDS011;22094;52.130;5.598;2023-07-13T11:45:43;4.10;;;2.70;;
23716;SDS011;22094;52.130;5.598;2023-07-13T11:50:50;4.75;;;2.50;;
23716;SDS011;22094;52.130;5.598;2023-07-13T11:53:18;6.53;;;2.40;;
23716;SDS011;22094;52.130;5.598;2023-07-13T11:55:44;9.15;;;3.40;;
23716;SDS011;22094;52.130;5.598;2023-07-13T11:58:11;6.60;;;3.20;;
23716;SDS011;22094;52.130;5.598;2023-07-13T12:00:46;8.35;;;4.15;;
23716;SDS011;22094;52.130;5.598;2023-07-13T12:03:13;8.43;;;4.32;;
23716;SDS011;22094;52.130;5.598;2023-07-13T12:05:55;8.25;;;4.50;;
23716;SDS011;22094;52.130;5.598;2023-07-13T12:08:26;11.07;;;4.35;;
23716;SDS011;22094;52.130;5.598;2023-07-13T12:11:05;9.20;;;5.20;;
23716;SDS011;22094;52.130;5.598;2023-07-13T12:13:39;7.57;;;5.07;;
23716;SDS011;22094;52.130;5.598;2023-07-13T12:16:38;12.50;;;6.05;;
23716;SDS011;22094;52.130;5.598;2023-07-13T12:19:01;8.10;;;6.40;;
23716;SDS011;22094;52.130;5.598;2023-07-13T12:21:36;10.95;;;5.95;;
23716;SDS011;22094;52.130;5.598;2023-07-13T12:24:03;8.73;;;6.10;;
23716;SDS011;22094;52.130;5.598;2023-07-13T12:26:30;7.15;;;5.07;;
23716;SDS011;22094;52.130;5.598;2023-07-13T12:28:59;8.25;;;4.75;;
23716;SDS011;22094;52.130;5.598;2023-07-13T12:34:17;8.73;;;5.18;;
23716;SDS011;22094;52.130;5.598;2023-07-13T12:39:17;10.35;;;5.00;;
23716;SDS011;22094;52.130;5.598;2023-07-13T12:41:43;10.75;;;4.82;;
23716;SDS011;22094;52.130;5.598;2023-07-13T12:44:14;11.23;;;4.13;;
23716;SDS011;22094;52.130;5.598;2023-07-13T12:46:55;7.57;;;3.90;;
23716;SDS011;22094;52.130;5.598;2023-07-13T12:49:39;7.63;;;3.85;;
23716;SDS011;22094;52.130;5.598;2023-07-13T12:52:12;9.00;;;4.38;;
23716;SDS011;22094;52.130;5.598;2023-07-13T12:54:55;9.57;;;4.53;;
23716;SDS011;22094;52.130;5.598;2023-07-13T12:57:22;11.13;;;4.65;;
23716;SDS011;22094;52.130;5.598;2023-07-13T12:59:51;10.13;;;4.60;;
23716;SDS011;22094;52.130;5.598;2023-07-13T13:02:31;10.23;;;4.45;;
23716;SDS011;22094;52.130;5.598;2023-07-13T13:05:01;8.80;;;4.00;;
23716;SDS011;22094;52.130;5.598;2023-07-13T13:07:30;10.30;;;3.90;;
23716;SDS011;22094;52.130;5.598;2023-07-13T13:09:56;7.38;;;3.80;;
23716;SDS011;22094;52.130;5.598;2023-07-13T13:12:22;10.48;;;3.70;;
23716;SDS011;22094;52.130;5.598;2023-07-13T13:14:51;6.82;;;3.22;;
23716;SDS011;22094;52.130;5.598;2023-07-13T13:17:23;6.82;;;3.22;;
23716;SDS011;22094;52.130;5.598;2023-07-13T13:19:52;7.32;;;2.72;;
23716;SDS011;22094;52.130;5.598;2023-07-13T13:22:19;6.28;;;2.83;;
23716;SDS011;22094;52.130;5.598;2023-07-13T13:24:45;9.73;;;3.33;;
23716;SDS011;22094;52.130;5.598;2023-07-13T13:27:15;6.22;;;2.85;;
23716;SDS011;22094;52.130;5.598;2023-07-13T13:29:43;7.88;;;3.00;;
23716;SDS011;22094;52.130;5.598;2023-07-13T13:32:13;3.35;;;2.50;;
23716;SDS011;22094;52.130;5.598;2023-07-13T13:34:40;4.05;;;2.60;;
23716;SDS011;22094;52.130;5.598;2023-07-13T13:37:40;4.47;;;2.50;;
23716;SDS011;22094;52.130;5.598;2023-07-13T13:39:59;5.40;;;2.70;;
23716;SDS011;22094;52.130;5.598;2023-07-13T13:42:25;6.50;;;2.88;;
23716;SDS011;22094;52.130;5.598;2023-07-13T13:44:52;5.60;;;3.03;;
23716;SDS011;22094;52.130;5.598;2023-07-13T13:47:25;3.95;;;2.50;;
23716;SDS011;22094;52.130;5.598;2023-07-13T13:49:55;4.53;;;2.80;;
23716;SDS011;22094;52.130;5.598;2023-07-13T13:52:21;9.82;;;2.75;;
23716;SDS011;22094;52.130;5.598;2023-07-13T13:54:47;4.88;;;2.80;;
23716;SDS011;22094;52.130;5.598;2023-07-13T13:57:14;4.40;;;2.65;;
23716;SDS011;22094;52.130;5.598;2023-07-13T13:59:39;6.97;;;2.85;;
23716;SDS011;22094;52.130;5.598;2023-07-13T14:02:19;5.25;;;2.55;;
23716;SDS011;22094;52.130;5.598;2023-07-13T14:04:50;5.22;;;3.00;;
23716;SDS011;22094;52.130;5.598;2023-07-13T14:07:20;6.18;;;2.50;;
23716;SDS011;22094;52.130;5.598;2023-07-13T14:09:45;4.90;;;2.78;;
23716;SDS011;22094;52.130;5.598;2023-07-13T14:12:11;5.85;;;2.60;;
23716;SDS011;22094;52.130;5.598;2023-07-13T14:14:37;3.67;;;2.60;;
23716;SDS011;22094;52.130;5.598;2023-07-13T14:17:08;7.75;;;2.97;;
23716;SDS011;22094;52.130;5.598;2023-07-13T14:19:43;4.95;;;2.88;;
23716;SDS011;22094;52.130;5.598;2023-07-13T14:22:08;5.65;;;2.20;;
23716;SDS011;22094;52.130;5.598;2023-07-13T14:24:34;7.25;;;3.00;;
23716;SDS011;22094;52.130;5.598;2023-07-13T14:27:00;3.92;;;2.35;;
23716;SDS011;22094;52.130;5.598;2023-07-13T14:29:26;7.07;;;2.63;;
23716;SDS011;22094;52.130;5.598;2023-07-13T14:31:51;6.80;;;3.58;;
23716;SDS011;22094;52.130;5.598;2023-07-13T14:34:17;4.72;;;2.83;;
23716;SDS011;22094;52.130;5.598;2023-07-13T14:36:47;3.10;;;2.70;;
23716;SDS011;22094;52.130;5.598;2023-07-13T14:39:15;6.25;;;3.15;;
23716;SDS011;22094;52.130;5.598;2023-07-13T14:41:44;3.28;;;2.80;;
23716;SDS011;22094;52.130;5.598;2023-07-13T14:44:14;4.18;;;2.60;;
23716;SDS011;22094;52.130;5.598;2023-07-13T14:46:41;3.78;;;2.53;;
23716;SDS011;22094;52.130;5.598;2023-07-13T14:51:44;5.00;;;2.95;;
23716;SDS011;22094;52.130;5.598;2023-07-13T14:54:10;6.85;;;2.58;;
23716;SDS011;22094;52.130;5.598;2023-07-13T14:56:36;6.68;;;2.70;;
23716;SDS011;22094;52.130;5.598;2023-07-13T14:59:02;5.00;;;2.60;;
23716;SDS011;22094;52.130;5.598;2023-07-13T15:01:29;4.97;;;2.42;;
23716;SDS011;22094;52.130;5.598;2023-07-13T15:03:55;4.20;;;2.33;;
23716;SDS011;22094;52.130;5.598;2023-07-13T15:06:22;4.70;;;2.45;;
23716;SDS011;22094;52.130;5.598;2023-07-13T15:08:48;4.00;;;2.30;;
23716;SDS011;22094;52.130;5.598;2023-07-13T15:11:15;4.93;;;2.22;;
23716;SDS011;22094;52.130;5.598;2023-07-13T15:13:42;4.93;;;2.03;;
23716;SDS011;22094;52.130;5.598;2023-07-13T15:16:18;6.07;;;2.10;;
23716;SDS011;22094;52.130;5.598;2023-07-13T15:18:48;3.95;;;2.30;;
23716;SDS011;22094;52.130;5.598;2023-07-13T15:21:24;6.93;;;2.00;;
23716;SDS011;22094;52.130;5.598;2023-07-13T15:23:50;5.40;;;2.40;;
23716;SDS011;22094;52.130;5.598;2023-07-13T15:26:16;2.97;;;1.95;;
23716;SDS011;22094;52.130;5.598;2023-07-13T15:28:44;4.00;;;1.95;;
23716;SDS011;22094;52.130;5.598;2023-07-13T15:31:20;3.50;;;1.70;;
23716;SDS011;22094;52.130;5.598;2023-07-13T15:33:48;7.38;;;2.42;;
23716;SDS011;22094;52.130;5.598;2023-07-13T15:36:19;6.55;;;2.05;;
23716;SDS011;22094;52.130;5.598;2023-07-13T15:38:45;3.63;;;2.03;;
23716;SDS011;22094;52.130;5.598;2023-07-13T15:41:25;3.53;;;2.20;;
23716;SDS011;22094;52.130;5.598;2023-07-13T15:43:53;4.25;;;2.15;;